createdAt,value
2023-02-03T00:00:54.807Z,2.90
2023-02-03T00:03:24.966Z,3.00
2023-02-03T00:05:54.808Z,2.90
2023-02-03T00:08:24.799Z,3.00
2023-02-03T00:10:56.849Z,3.00
2023-02-03T00:13:31.619Z,3.00
2023-02-03T00:16:02.531Z,3.10
2023-02-03T00:18:33.565Z,3.00
2023-02-03T00:21:03.091Z,3.10
2023-02-03T00:23:35.268Z,3.10
2023-02-03T00:26:17.590Z,3.00
2023-02-03T00:28:50.779Z,3.00
2023-02-03T00:31:22.143Z,3.00
2023-02-03T00:34:05.332Z,3.00
2023-02-03T00:36:34.883Z,3.10
2023-02-03T00:39:04.481Z,3.00
2023-02-03T00:41:37.006Z,3.10
2023-02-03T00:44:04.898Z,3.00
2023-02-03T00:46:33.031Z,3.10
2023-02-03T00:49:04.946Z,3.00
2023-02-03T00:51:38.935Z,3.00
2023-02-03T00:54:16.145Z,3.00
2023-02-03T00:56:50.863Z,3.00
2023-02-03T00:59:23.508Z,3.00
2023-02-03T01:01:51.431Z,3.00
2023-02-03T01:04:26.535Z,3.00
2023-02-03T01:07:00.571Z,3.00
2023-02-03T01:09:27.596Z,3.00
2023-02-03T01:11:59.090Z,3.10
2023-02-03T01:14:29.320Z,3.10
2023-02-03T01:17:00.723Z,3.10
2023-02-03T01:19:31.565Z,3.00
2023-02-03T01:22:02.337Z,3.00
2023-02-03T01:24:34.409Z,3.00
2023-02-03T01:27:05.321Z,3.00
2023-02-03T01:29:35.259Z,2.90
2023-02-03T01:32:14.528Z,2.90
2023-02-03T01:34:52.158Z,2.80
2023-02-03T01:37:24.435Z,2.90
2023-02-03T01:39:54.794Z,2.80
2023-02-03T01:42:31.483Z,2.80
2023-02-03T01:45:03.423Z,2.80
2023-02-03T01:47:54.489Z,2.70
2023-02-03T01:50:44.644Z,2.70
2023-02-03T01:53:18.219Z,2.80
2023-02-03T01:55:52.701Z,2.80
2023-02-03T01:58:36.795Z,2.90
2023-02-03T02:01:14.947Z,2.90
2023-02-03T02:04:08.388Z,2.80
2023-02-03T02:06:35.783Z,3.00
2023-02-03T02:09:05.828Z,3.00
2023-02-03T02:11:39.039Z,3.00
2023-02-03T02:14:12.213Z,3.10
2023-02-03T02:16:48.552Z,3.00
2023-02-03T02:19:35.270Z,3.10
2023-02-03T02:22:13.223Z,3.10
2023-02-03T02:25:19.229Z,3.10
2023-02-03T02:28:24.597Z,3.10
2023-02-03T02:31:31.581Z,3.10
2023-02-03T02:34:14.079Z,3.10
2023-02-03T02:37:15.717Z,3.10
2023-02-03T02:40:27.417Z,3.10
2023-02-03T02:43:22.512Z,3.10
2023-02-03T02:46:06.218Z,3.10
2023-02-03T02:49:06.910Z,3.10
2023-02-03T02:51:39.428Z,3.00
2023-02-03T02:54:14.223Z,3.00
2023-02-03T02:56:49.047Z,3.00
2023-02-03T02:59:18.777Z,3.00
2023-02-03T03:01:49.282Z,3.00
2023-02-03T03:04:23.435Z,3.00
2023-02-03T03:07:13.185Z,2.90
2023-02-03T03:12:42.368Z,2.90
2023-02-03T03:15:28.961Z,2.90
2023-02-03T03:18:22.399Z,2.80
2023-02-03T03:20:51.301Z,2.80
2023-02-03T03:23:34.571Z,2.80
2023-02-03T03:26:38.179Z,2.70
2023-02-03T03:29:37.933Z,2.80
2023-02-03T03:32:12.008Z,2.80
2023-02-03T03:34:40.561Z,2.70
2023-02-03T03:37:39.343Z,2.70
2023-02-03T03:40:40.754Z,2.70
2023-02-03T03:43:48.940Z,2.70
2023-02-03T03:46:25.321Z,2.70
2023-02-03T03:49:02.150Z,2.70
2023-02-03T03:52:06.504Z,2.70
2023-02-03T03:54:37.670Z,2.70
2023-02-03T03:57:59.713Z,2.70
2023-02-03T04:00:36.424Z,2.80
2023-02-03T04:03:19.315Z,2.70
2023-02-03T04:05:58.380Z,2.70
2023-02-03T04:08:27.427Z,2.70
2023-02-03T04:10:55.957Z,2.80
2023-02-03T04:13:29.341Z,2.70
2023-02-03T04:15:59.258Z,2.80
2023-02-03T04:18:28.529Z,2.80
2023-02-03T04:20:58.009Z,2.70
2023-02-03T04:23:33.467Z,2.80
2023-02-03T04:26:11.681Z,2.80
2023-02-03T04:28:41.887Z,2.70
2023-02-03T04:31:13.009Z,2.70
2023-02-03T04:33:47.416Z,2.80
2023-02-03T04:36:20.096Z,2.70
2023-02-03T04:38:53.680Z,2.60
2023-02-03T04:41:23.137Z,2.70
2023-02-03T04:43:50.822Z,2.70
2023-02-03T04:46:20.858Z,2.80
2023-02-03T04:48:56.042Z,2.80
2023-02-03T04:51:27.953Z,2.80
2023-02-03T04:54:02.512Z,3.00
2023-02-03T04:56:32.508Z,2.90
2023-02-03T04:59:09.394Z,2.90
2023-02-03T05:01:42.510Z,3.10
2023-02-03T05:04:13.341Z,3.00
2023-02-03T05:06:48.028Z,3.10
2023-02-03T05:09:21.341Z,3.10
2023-02-03T05:11:52.337Z,3.20
2023-02-03T05:14:24.864Z,3.20
2023-02-03T05:16:55.736Z,3.30
2023-02-03T05:19:26.529Z,3.40
2023-02-03T05:22:00.271Z,3.30
2023-02-03T05:24:32.951Z,3.40
2023-02-03T05:27:07.773Z,3.40
2023-02-03T05:29:42.893Z,3.30
2023-02-03T05:32:12.040Z,3.40
2023-02-03T05:34:42.299Z,3.40
2023-02-03T05:37:13.038Z,3.50
2023-02-03T05:39:48.019Z,3.60
2023-02-03T05:42:27.919Z,3.50
2023-02-03T05:45:00.663Z,3.50
2023-02-03T05:47:39.423Z,3.60
2023-02-03T05:50:08.964Z,3.60
2023-02-03T05:52:41.629Z,3.70
2023-02-03T05:55:13.319Z,3.60
2023-02-03T05:57:40.274Z,3.60
2023-02-03T06:00:12.903Z,3.60
2023-02-03T06:02:42.724Z,3.70
2023-02-03T06:05:09.741Z,3.70
2023-02-03T06:07:40.124Z,3.60
2023-02-03T06:10:08.868Z,3.70
2023-02-03T06:12:38.526Z,3.70
2023-02-03T06:15:10.213Z,3.70
2023-02-03T06:17:40.948Z,3.80
2023-02-03T06:20:09.661Z,3.80
2023-02-03T06:22:40.083Z,3.80
2023-02-03T06:25:13.061Z,3.80
2023-02-03T06:27:43.824Z,3.90
2023-02-03T06:30:15.729Z,3.90
2023-02-03T06:32:48.849Z,3.80
2023-02-03T06:35:17.898Z,3.80
2023-02-03T06:37:48.029Z,3.80
2023-02-03T06:40:16.719Z,3.80
2023-02-03T06:42:55.180Z,3.90
2023-02-03T06:45:28.201Z,3.90
2023-02-03T06:47:59.183Z,3.90
2023-02-03T06:50:30.327Z,3.90
2023-02-03T06:53:08.864Z,3.90
2023-02-03T06:55:43.200Z,4.00
2023-02-03T06:58:11.417Z,4.00
2023-02-03T07:00:38.675Z,4.00
2023-02-03T07:03:09.120Z,4.10
2023-02-03T07:05:51.863Z,4.10
2023-02-03T07:08:33.698Z,4.10
2023-02-03T07:11:04.062Z,4.10
2023-02-03T07:13:39.229Z,4.20
2023-02-03T07:16:11.832Z,4.30
2023-02-03T07:18:49.193Z,4.30
2023-02-03T07:21:19.762Z,4.20
2023-02-03T07:23:54.707Z,4.30
2023-02-03T07:26:29.822Z,4.40
2023-02-03T07:31:54.679Z,4.50
2023-02-03T07:34:27.603Z,4.40
2023-02-03T07:36:59.234Z,4.40
2023-02-03T07:39:29.921Z,4.50
2023-02-03T07:42:13.210Z,4.50
2023-02-03T07:44:50.688Z,4.50
2023-02-03T07:47:19.838Z,4.50
2023-02-03T07:49:50.227Z,4.50
2023-02-03T07:52:21.927Z,4.50
2023-02-03T07:54:55.273Z,4.60
2023-02-03T07:57:26.428Z,4.60
2023-02-03T07:59:59.366Z,4.60
2023-02-03T08:02:28.324Z,4.60
2023-02-03T08:05:01.377Z,4.70
2023-02-03T08:07:32.260Z,5.00
2023-02-03T08:10:01.031Z,5.30
2023-02-03T08:12:31.452Z,5.00
2023-02-03T08:19:28.870Z,5.00
2023-02-03T08:25:14.355Z,5.00
2023-02-03T08:27:53.688Z,5.10
2023-02-03T08:30:29.576Z,5.10
2023-02-03T08:33:00.952Z,5.20
2023-02-03T08:35:29.223Z,5.20
2023-02-03T08:37:56.689Z,5.20
2023-02-03T08:40:31.330Z,5.30
2023-02-03T08:43:01.921Z,5.30
2023-02-03T08:45:31.276Z,5.30
2023-02-03T08:48:08.110Z,5.30
2023-02-03T08:50:37.675Z,5.30
2023-02-03T08:53:05.899Z,5.40
2023-02-03T08:55:33.684Z,5.40
2023-02-03T08:58:01.809Z,5.40
2023-02-03T09:00:30.835Z,5.50
2023-02-03T09:03:01.657Z,5.50
2023-02-03T09:05:32.158Z,5.50
2023-02-03T09:08:00.577Z,5.50
2023-02-03T09:10:30.940Z,5.60
2023-02-03T09:13:05.261Z,5.60
2023-02-03T09:15:34.021Z,5.70
2023-02-03T09:18:01.701Z,5.70
2023-02-03T09:20:29.993Z,5.80
2023-02-03T09:23:00.870Z,5.80
2023-02-03T09:25:32.552Z,5.80
2023-02-03T09:28:04.895Z,5.80
2023-02-03T09:30:35.185Z,5.90
2023-02-03T09:33:05.086Z,6.00
2023-02-03T09:35:35.097Z,6.00
2023-02-03T09:38:04.211Z,6.00
2023-02-03T09:40:35.976Z,6.00
2023-02-03T09:43:50.854Z,6.10
2023-02-03T09:46:34.919Z,6.20
2023-02-03T09:49:15.481Z,6.20
2023-02-03T09:51:55.868Z,6.30
2023-02-03T09:54:49.380Z,6.30
2023-02-03T09:57:43.274Z,6.40
2023-02-03T10:00:27.054Z,6.40
2023-02-03T10:03:10.014Z,6.40
2023-02-03T10:05:55.981Z,6.40
2023-02-03T10:08:48.505Z,6.40
2023-02-03T10:11:52.490Z,6.50
2023-02-03T10:15:08.451Z,6.60
2023-02-03T10:17:44.600Z,6.60
2023-02-03T10:20:23.478Z,6.70
2023-02-03T10:23:05.618Z,6.80
2023-02-03T10:25:38.481Z,7.00
2023-02-03T10:28:20.292Z,7.20
2023-02-03T10:30:55.031Z,7.20
2023-02-03T10:33:26.653Z,7.30
2023-02-03T10:36:26.767Z,7.20
2023-02-03T10:39:36.033Z,7.20
2023-02-03T10:42:06.438Z,7.10
2023-02-03T10:44:39.634Z,7.00
2023-02-03T10:47:44.427Z,7.00
2023-02-03T10:50:25.920Z,7.00
2023-02-03T10:53:20.312Z,7.00
2023-02-03T10:55:51.304Z,7.00
2023-02-03T10:58:40.749Z,7.00
2023-02-03T11:01:27.589Z,7.00
2023-02-03T11:04:31.748Z,7.00
2023-02-03T11:07:05.386Z,7.00
2023-02-03T11:09:42.097Z,7.10
2023-02-03T11:12:18.367Z,7.10
2023-02-03T11:15:05.374Z,7.10
2023-02-03T11:17:36.655Z,7.10
2023-02-03T11:20:15.309Z,7.10
2023-02-03T11:22:44.234Z,7.10
2023-02-03T11:25:35.088Z,7.10
2023-02-03T11:28:15.814Z,7.10
2023-02-03T11:30:46.387Z,7.10
2023-02-03T11:33:20.051Z,7.00
2023-02-03T11:36:02.776Z,7.10
2023-02-03T11:38:33.555Z,7.00
2023-02-03T11:41:05.145Z,7.00
2023-02-03T11:43:34.941Z,6.90
2023-02-03T11:46:08.369Z,7.00
2023-02-03T11:48:54.008Z,6.90
2023-02-03T11:52:10.564Z,6.90
2023-02-03T11:54:59.943Z,6.90
2023-02-03T11:57:56.938Z,6.90
2023-02-03T12:00:56.463Z,6.90
2023-02-03T12:04:02.349Z,6.80
2023-02-03T12:06:56.633Z,6.90
2023-02-03T12:10:05.993Z,6.80
2023-02-03T12:12:57.503Z,6.90
2023-02-03T12:16:07.957Z,6.90
2023-02-03T12:19:30.116Z,6.90
2023-02-03T12:22:21.686Z,6.90
2023-02-03T12:25:06.233Z,6.90
2023-02-03T12:27:51.935Z,6.90
2023-02-03T12:30:27.777Z,6.90
2023-02-03T12:33:08.352Z,6.90
2023-02-03T12:36:06.291Z,7.00
2023-02-03T12:39:18.997Z,7.00
2023-02-03T12:42:16.371Z,7.00
2023-02-03T12:45:00.411Z,7.10
2023-02-03T12:47:44.147Z,7.00
2023-02-03T12:50:26.520Z,7.00
2023-02-03T12:53:16.133Z,6.90
2023-02-03T12:56:13.414Z,6.90
2023-02-03T12:59:02.422Z,6.90
2023-02-03T13:01:42.776Z,6.90
2023-02-03T13:04:34.894Z,7.00
2023-02-03T13:07:18.411Z,7.00
2023-02-03T13:10:07.441Z,7.00
2023-02-03T13:12:56.395Z,7.00
2023-02-03T13:15:39.771Z,7.00
2023-02-03T13:18:31.520Z,7.00
2023-02-03T13:21:03.935Z,7.00
2023-02-03T13:23:41.331Z,7.00
2023-02-03T13:26:42.956Z,7.00
2023-02-03T13:29:46.267Z,7.00
2023-02-03T13:32:37.463Z,7.00
2023-02-03T13:35:34.378Z,7.10
2023-02-03T13:38:39.619Z,7.10
2023-02-03T13:41:36.148Z,7.00
2023-02-03T13:44:07.281Z,7.00
2023-02-03T13:46:36.679Z,7.00
2023-02-03T13:49:05.987Z,7.00
2023-02-03T13:51:45.413Z,7.00
2023-02-03T13:54:42.836Z,7.00
2023-02-03T13:57:34.035Z,7.00
2023-02-03T14:00:09.513Z,6.90
2023-02-03T14:02:56.279Z,6.80
2023-02-03T14:06:05.223Z,6.70
2023-02-03T14:08:37.964Z,6.60
2023-02-03T14:11:42.008Z,6.60
2023-02-03T14:14:21.774Z,6.60
2023-02-03T14:16:56.302Z,6.60
2023-02-03T14:19:35.614Z,6.40
2023-02-03T14:22:22.174Z,6.50
2023-02-03T14:24:52.524Z,6.40
2023-02-03T14:27:29.605Z,6.30
2023-02-03T14:30:14.648Z,6.30
2023-02-03T14:33:00.767Z,6.20
2023-02-03T14:35:34.694Z,6.20
2023-02-03T14:38:15.847Z,6.20
2023-02-03T14:41:01.535Z,6.10
2023-02-03T14:43:38.245Z,6.00
2023-02-03T14:46:17.096Z,6.10
2023-02-03T14:49:20.730Z,6.00
2023-02-03T14:51:54.589Z,6.00
2023-02-03T14:54:40.431Z,5.90
2023-02-03T14:57:52.385Z,5.90
2023-02-03T15:00:24.630Z,6.00
2023-02-03T15:03:21.051Z,6.00
2023-02-03T15:06:02.077Z,6.00
2023-02-03T15:08:50.943Z,5.90
2023-02-03T15:11:34.003Z,5.80
2023-02-03T15:14:24.223Z,5.80
2023-02-03T15:17:06.021Z,5.80
2023-02-03T15:19:35.754Z,5.80
2023-02-03T15:22:32.889Z,5.80
2023-02-03T15:25:21.971Z,5.70
2023-02-03T15:27:53.516Z,5.80
2023-02-03T15:30:30.296Z,5.70
2023-02-03T15:33:31.878Z,5.70
2023-02-03T15:36:12.981Z,5.70
2023-02-03T15:38:46.567Z,5.80
2023-02-03T15:41:26.373Z,5.70
2023-02-03T15:44:01.566Z,5.70
2023-02-03T15:46:51.225Z,5.70
2023-02-03T15:49:40.336Z,5.80
2023-02-03T15:52:31.227Z,5.80
2023-02-03T15:55:09.035Z,5.80
2023-02-03T15:57:38.347Z,5.80
2023-02-03T16:00:40.793Z,5.80
2023-02-03T16:03:27.259Z,5.90
2023-02-03T16:06:28.149Z,5.90
2023-02-03T16:08:58.213Z,6.00
2023-02-03T16:11:36.001Z,6.00
2023-02-03T16:14:07.513Z,5.90
2023-02-03T16:16:52.155Z,6.00
2023-02-03T16:19:29.783Z,5.90
2023-02-03T16:22:03.117Z,5.90
2023-02-03T16:24:38.545Z,6.00
2023-02-03T16:27:27.748Z,5.90
2023-02-03T16:30:26.765Z,6.00
2023-02-03T16:33:41.728Z,6.00
2023-02-03T16:36:35.387Z,6.00
2023-02-03T16:39:28.432Z,6.00
2023-02-03T16:42:17.066Z,6.10
2023-02-03T16:45:06.479Z,6.10
2023-02-03T16:47:53.048Z,6.10
2023-02-03T16:50:46.975Z,6.20
2023-02-03T16:53:22.614Z,6.20
2023-02-03T16:55:54.248Z,6.20
2023-02-03T16:58:25.312Z,6.30
2023-02-03T17:00:53.987Z,6.30
2023-02-03T17:03:28.210Z,6.30
2023-02-03T17:06:00.144Z,6.30
2023-02-03T17:08:29.249Z,6.30
2023-02-03T17:11:03.615Z,6.40
2023-02-03T17:13:30.834Z,6.40
2023-02-03T17:16:01.642Z,6.40
2023-02-03T17:18:29.484Z,6.40
2023-02-03T17:21:06.809Z,6.40
2023-02-03T17:23:35.221Z,6.50
2023-02-03T17:26:04.095Z,6.50
2023-02-03T17:28:31.613Z,6.50
2023-02-03T17:31:03.705Z,6.50
2023-02-03T17:33:33.242Z,6.50
2023-02-03T17:36:12.742Z,6.50
2023-02-03T17:55:28.515Z,6.60
2023-02-03T17:57:58.134Z,6.60
2023-02-03T18:00:31.343Z,6.60
2023-02-03T18:03:04.515Z,6.60
2023-02-03T18:05:43.080Z,6.60
2023-02-03T18:08:16.614Z,6.50
2023-02-03T18:10:51.657Z,6.40
2023-02-03T18:13:23.840Z,6.20
2023-02-03T18:15:55.607Z,6.10
2023-02-03T18:18:33.157Z,6.00
2023-02-03T18:21:08.053Z,5.90
2023-02-03T18:23:37.734Z,5.80
2023-02-03T18:26:08.152Z,5.90
2023-02-03T18:28:36.742Z,5.90
2023-02-03T18:31:11.408Z,5.90
2023-02-03T18:33:40.857Z,5.90
2023-02-03T18:36:16.043Z,5.90
2023-02-03T18:39:01.230Z,5.90
2023-02-03T18:41:36.974Z,5.90
2023-02-03T18:44:13.267Z,5.80
2023-02-03T18:46:43.393Z,5.80
2023-02-03T18:49:15.130Z,5.80
2023-02-03T18:54:32.652Z,5.80
2023-02-03T18:57:07.442Z,5.90
2023-02-03T18:59:36.258Z,5.80
2023-02-03T19:02:08.018Z,5.80
2023-02-03T19:04:36.952Z,5.80
2023-02-03T19:07:08.290Z,5.90
2023-02-03T19:09:42.559Z,5.90
2023-02-03T19:12:11.438Z,5.90
2023-02-03T19:14:41.180Z,5.90
2023-02-03T19:17:13.456Z,5.90
2023-02-03T19:19:54.857Z,5.90
2023-02-03T19:22:23.758Z,5.90
2023-02-03T19:24:56.598Z,5.80
2023-02-03T19:27:29.509Z,5.90
2023-02-03T19:30:02.900Z,5.90
2023-02-03T19:32:32.749Z,5.90
2023-02-03T19:35:03.633Z,5.90
2023-02-03T19:37:39.727Z,5.80
2023-02-03T19:40:24.494Z,5.90
2023-02-03T19:42:53.053Z,5.90
2023-02-03T19:45:26.449Z,5.80
2023-02-03T19:47:54.922Z,5.90
2023-02-03T19:50:24.354Z,5.90
2023-02-03T19:52:54.255Z,5.90
2023-02-03T19:55:33.825Z,5.90
2023-02-03T19:58:08.311Z,5.90
2023-02-03T20:00:47.105Z,6.00
2023-02-03T20:03:40.099Z,6.00
2023-02-03T20:06:25.417Z,6.00
2023-02-03T20:09:07.177Z,6.00
2023-02-03T20:11:42.999Z,6.00
2023-02-03T20:14:22.078Z,6.00
2023-02-03T20:16:51.571Z,6.00
2023-02-03T20:19:23.939Z,6.10
2023-02-03T20:21:57.913Z,6.10
2023-02-03T20:24:27.955Z,6.00
2023-02-03T20:26:59.456Z,6.10
2023-02-03T20:29:36.724Z,6.10
2023-02-03T20:32:29.398Z,6.10
2023-02-03T20:35:04.904Z,6.00
2023-02-03T20:37:40.509Z,6.00
2023-02-03T20:40:17.906Z,6.00
2023-02-03T20:42:56.120Z,6.00
2023-02-03T20:45:29.859Z,6.10
2023-02-03T20:48:10.927Z,6.10
2023-02-03T20:50:49.333Z,6.10
2023-02-03T20:53:25.261Z,6.10
2023-02-03T20:56:06.437Z,6.10
2023-02-03T20:58:38.822Z,6.00
2023-02-03T21:01:21.650Z,6.00
2023-02-03T21:04:12.070Z,6.00
2023-02-03T21:06:44.007Z,6.00
2023-02-03T21:09:25.664Z,6.00
2023-02-03T21:12:01.749Z,6.00
2023-02-03T21:14:45.239Z,6.00
2023-02-03T21:17:30.804Z,6.00
2023-02-03T21:20:02.920Z,5.90
2023-02-03T21:22:33.695Z,6.00
2023-02-03T21:25:07.148Z,6.00
2023-02-03T21:27:46.887Z,6.00
2023-02-03T21:30:32.992Z,6.00
2023-02-03T21:33:29.943Z,6.00
2023-02-03T21:36:03.401Z,6.00
2023-02-03T21:38:36.336Z,5.90
2023-02-03T21:41:19.750Z,6.00
2023-02-03T21:43:57.706Z,6.00
2023-02-03T21:46:46.451Z,6.00
2023-02-03T21:49:23.799Z,6.10
2023-02-03T21:51:56.665Z,6.10
2023-02-03T21:54:30.500Z,6.10
2023-02-03T21:57:03.233Z,6.00
2023-02-03T21:59:51.077Z,6.10
2023-02-03T22:03:01.029Z,6.10
2023-02-03T22:05:29.942Z,6.20
2023-02-03T22:07:58.676Z,6.20
2023-02-03T22:10:28.134Z,6.10
2023-02-03T22:13:01.921Z,6.10
2023-02-03T22:15:38.716Z,6.10
2023-02-03T22:18:09.114Z,6.10
2023-02-03T22:20:38.112Z,6.10
2023-02-03T22:23:06.202Z,6.10
2023-02-03T22:25:43.096Z,6.20
2023-02-03T22:28:13.795Z,6.20
2023-02-03T22:30:41.357Z,6.20
2023-02-03T22:33:10.605Z,6.20
2023-02-03T22:35:40.760Z,6.20
2023-02-03T22:38:11.172Z,6.20
2023-02-03T22:40:39.771Z,6.20
2023-02-03T22:43:07.635Z,6.20
2023-02-03T22:45:36.967Z,6.30
2023-02-03T22:48:10.470Z,6.30
2023-02-03T22:50:39.430Z,6.20
2023-02-03T22:53:10.123Z,6.30
2023-02-03T22:55:41.703Z,6.30
2023-02-03T22:58:14.893Z,6.30
2023-02-03T23:00:50.065Z,6.20
2023-02-03T23:03:18.099Z,6.40
2023-02-03T23:05:46.840Z,6.40
2023-02-03T23:08:15.668Z,6.40
2023-02-03T23:10:45.834Z,6.40
2023-02-03T23:13:18.277Z,6.30
2023-02-03T23:15:45.718Z,6.30
2023-02-03T23:18:15.296Z,6.30
2023-02-03T23:20:42.377Z,6.40
2023-02-03T23:23:10.986Z,6.40
2023-02-03T23:25:38.544Z,6.30
2023-02-03T23:28:06.562Z,6.40
2023-02-03T23:30:36.585Z,6.30
2023-02-03T23:33:07.750Z,6.30
2023-02-03T23:35:46.855Z,6.40
2023-02-03T23:38:18.354Z,6.40
2023-02-03T23:40:45.813Z,6.40
2023-02-03T23:43:15.000Z,6.50
2023-02-03T23:45:46.328Z,6.50
2023-02-03T23:48:17.947Z,6.50
2023-02-03T23:50:45.664Z,6.50
2023-02-03T23:53:14.617Z,6.60
2023-02-03T23:55:45.851Z,6.50
2023-02-03T23:58:15.973Z,6.50
